Time;durP1;ratioP1;P1;durP2;ratioP2;P2;SDS_P1;SDS_P2;PMS_P1;PMS_P2;Temp;Humidity;BMP_temperature;BMP_pressure;BME280_temperature;BME280_humidity;BME280_pressure;Samples;Min_cycle;Max_cycle;Signal;HPM_P1;HPM_P2
2023/10/05 00:03:16;;;;;;;22.65;7.90;;;;;;;;;;5177238;27;20393;-73
2023/10/05 00:06:13;;;;;;;15.70;7.70;;;;;;;;;;5161156;27;20144;-73
2023/10/05 00:08:59;;;;;;;13.60;7.30;;;;;;;;;;5176040;27;20014;-73
2023/10/05 00:11:45;;;;;;;15.75;7.72;;;;;;;;;;5161787;27;20511;-73
2023/10/05 00:14:30;;;;;;;20.33;8.18;;;;;;;;;;5161164;27;20061;-73
2023/10/05 00:17:19;;;;;;;15.27;7.93;;;;;;;;;;5175231;27;20329;-73
2023/10/05 00:20:14;;;;;;;16.98;8.93;;;;;;;;;;5175203;27;20022;-73
2023/10/05 00:23:03;;;;;;;15.98;7.72;;;;;;;;;;5161538;27;20341;-73
2023/10/05 00:25:50;;;;;;;15.13;8.05;;;;;;;;;;5160892;27;20465;-74
2023/10/05 00:28:36;;;;;;;13.95;7.82;;;;;;;;;;5176269;27;20040;-74
2023/10/05 00:31:24;;;;;;;27.73;7.97;;;;;;;;;;5161682;27;20409;-73
2023/10/05 00:34:15;;;;;;;17.42;7.25;;;;;;;;;;5160526;27;20309;-73
2023/10/05 00:37:01;;;;;;;14.30;6.80;;;;;;;;;;5160682;27;20055;-73
2023/10/05 00:39:49;;;;;;;30.38;7.93;;;;;;;;;;5159555;27;20037;-73
2023/10/05 00:42:35;;;;;;;18.58;7.05;;;;;;;;;;5161042;27;20481;-74
2023/10/05 00:45:25;;;;;;;18.25;6.53;;;;;;;;;;5175767;27;20054;-73
2023/10/05 00:48:19;;;;;;;12.93;6.60;;;;;;;;;;5175613;27;20019;-74
2023/10/05 00:51:23;;;;;;;15.18;6.97;;;;;;;;;;5175915;27;20042;-73
2023/10/05 00:54:18;;;;;;;18.88;7.20;;;;;;;;;;5174897;27;20043;-73
2023/10/05 00:57:09;;;;;;;13.30;6.65;;;;;;;;;;5175456;27;20436;-73
2023/10/05 01:06:12;;;;;;;17.05;6.72;;;;;;;;;;5162374;27;20325;-73
2023/10/05 01:09:04;;;;;;;17.15;6.90;;;;;;;;;;5178791;27;20443;-75
2023/10/05 01:11:54;;;;;;;12.15;6.10;;;;;;;;;;5179123;27;20431;-73
2023/10/05 01:15:15;;;;;;;15.35;6.78;;;;;;;;;;5179625;27;20061;-73
2023/10/05 01:17:54;;;;;;;11.50;6.30;;;;;;;;;;5179543;27;20033;-73
2023/10/05 01:20:43;;;;;;;13.65;6.32;;;;;;;;;;5179297;27;20333;-74
2023/10/05 01:23:30;;;;;;;13.57;6.30;;;;;;;;;;5163764;27;20051;-74
2023/10/05 01:26:16;;;;;;;19.70;6.30;;;;;;;;;;5169805;27;20037;-73
2023/10/05 01:29:02;;;;;;;18.63;7.28;;;;;;;;;;5171124;27;20026;-72
2023/10/05 01:31:48;;;;;;;13.80;6.47;;;;;;;;;;5166096;27;20018;-73
2023/10/05 01:34:34;;;;;;;15.55;6.30;;;;;;;;;;5164773;27;20037;-72
2023/10/05 01:37:25;;;;;;;12.85;6.55;;;;;;;;;;5166999;27;20015;-73
2023/10/05 01:43:05;;;;;;;15.98;6.63;;;;;;;;;;5179469;27;20026;-74
2023/10/05 01:45:51;;;;;;;13.07;6.47;;;;;;;;;;5163566;27;20118;-73
2023/10/05 01:48:37;;;;;;;14.30;6.85;;;;;;;;;;5164076;27;20464;-74
2023/10/05 01:51:26;;;;;;;13.55;6.68;;;;;;;;;;5178167;27;20034;-73
2023/10/05 01:54:11;;;;;;;13.55;6.75;;;;;;;;;;5164145;27;20443;-73
2023/10/05 01:57:01;;;;;;;14.80;6.82;;;;;;;;;;5163779;27;20141;-73
2023/10/05 01:59:46;;;;;;;12.00;6.65;;;;;;;;;;5163671;27;20419;-74
2023/10/05 02:02:32;;;;;;;20.35;6.25;;;;;;;;;;5179106;27;20439;-73
2023/10/05 02:05:20;;;;;;;15.70;7.00;;;;;;;;;;5177970;27;20447;-74
2023/10/05 02:08:06;;;;;;;19.73;6.93;;;;;;;;;;5163467;27;20053;-73
2023/10/05 02:10:52;;;;;;;14.80;7.00;;;;;;;;;;5178447;27;20029;-73
2023/10/05 02:13:38;;;;;;;15.52;7.20;;;;;;;;;;5178317;27;20090;-73
2023/10/05 02:16:24;;;;;;;16.88;6.80;;;;;;;;;;5177355;27;20057;-74
2023/10/05 02:19:10;;;;;;;13.77;6.88;;;;;;;;;;5163541;27;20385;-74
2023/10/05 02:21:57;;;;;;;16.02;7.63;;;;;;;;;;5177876;27;20018;-73
2023/10/05 02:24:44;;;;;;;15.05;7.25;;;;;;;;;;5178682;27;20460;-73
2023/10/05 02:27:30;;;;;;;16.08;7.80;;;;;;;;;;5177807;27;20435;-74
2023/10/05 02:30:16;;;;;;;16.48;7.40;;;;;;;;;;5162382;27;20055;-74
2023/10/05 02:33:04;;;;;;;13.00;7.47;;;;;;;;;;5178442;27;20529;-73
2023/10/05 02:35:54;;;;;;;18.80;7.43;;;;;;;;;;5178317;27;20015;-73
2023/10/05 02:38:48;;;;;;;14.93;7.82;;;;;;;;;;5177283;27;20014;-74
2023/10/05 02:41:40;;;;;;;19.58;7.28;;;;;;;;;;5163871;27;20467;-72
2023/10/05 02:44:30;;;;;;;24.45;8.00;;;;;;;;;;5186273;27;20055;-72
2023/10/05 02:47:22;;;;;;;27.08;7.68;;;;;;;;;;5179056;27;20162;-72
2023/10/05 02:50:08;;;;;;;19.05;7.45;;;;;;;;;;5177474;27;20376;-74
2023/10/05 02:52:54;;;;;;;18.48;8.07;;;;;;;;;;5177967;27;20026;-73
2023/10/05 02:55:40;;;;;;;17.15;8.10;;;;;;;;;;5162003;27;20014;-73
2023/10/05 02:58:26;;;;;;;21.27;7.82;;;;;;;;;;5162058;27;20029;-74
2023/10/05 03:01:12;;;;;;;17.23;7.90;;;;;;;;;;5176952;27;20082;-73
2023/10/05 03:04:09;;;;;;;19.42;7.13;;;;;;;;;;5162442;27;20026;-73
2023/10/05 03:06:55;;;;;;;21.83;8.52;;;;;;;;;;5161498;27;20392;-72
2023/10/05 03:09:42;;;;;;;24.15;8.85;;;;;;;;;;5162166;27;20014;-72
2023/10/05 03:12:27;;;;;;;18.40;8.32;;;;;;;;;;5162517;27;20026;-73
2023/10/05 03:15:13;;;;;;;17.30;8.25;;;;;;;;;;5161504;27;20105;-72
2023/10/05 03:17:59;;;;;;;23.70;9.27;;;;;;;;;;5162696;27;20020;-73
2023/10/05 03:20:46;;;;;;;20.05;8.75;;;;;;;;;;5162077;27;20042;-72
2023/10/05 03:23:32;;;;;;;16.63;9.07;;;;;;;;;;5162513;27;20126;-73
2023/10/05 03:26:18;;;;;;;17.33;9.15;;;;;;;;;;5160465;27;20006;-73
2023/10/05 03:29:03;;;;;;;20.65;9.63;;;;;;;;;;5162193;27;20058;-73
2023/10/05 03:31:54;;;;;;;24.48;9.38;;;;;;;;;;5176801;27;20019;-74
2023/10/05 03:34:42;;;;;;;17.58;9.57;;;;;;;;;;5176696;27;20022;-72
2023/10/05 03:37:31;;;;;;;18.83;9.13;;;;;;;;;;5177439;27;20323;-72
2023/10/05 03:40:24;;;;;;;16.55;9.35;;;;;;;;;;5176755;27;20021;-73
2023/10/05 03:43:10;;;;;;;17.90;9.73;;;;;;;;;;5175676;27;20015;-73
2023/10/05 03:45:56;;;;;;;19.83;10.30;;;;;;;;;;5161950;27;20026;-73
2023/10/05 03:48:43;;;;;;;17.30;10.27;;;;;;;;;;5177503;27;20035;-73
2023/10/05 03:51:29;;;;;;;19.85;11.02;;;;;;;;;;5177152;27;20033;-73
2023/10/05 03:54:15;;;;;;;22.25;11.63;;;;;;;;;;5162134;27;20018;-73
2023/10/05 03:57:10;;;;;;;21.75;11.63;;;;;;;;;;5176305;27;20045;-73
2023/10/05 03:59:57;;;;;;;22.77;12.07;;;;;;;;;;5176737;27;20459;-73
2023/10/05 04:02:43;;;;;;;21.48;11.80;;;;;;;;;;5160918;27;20026;-73
2023/10/05 04:05:28;;;;;;;31.75;12.68;;;;;;;;;;5161707;27;20018;-73
2023/10/05 04:08:16;;;;;;;22.90;12.45;;;;;;;;;;5162575;27;20087;-74
2023/10/05 04:11:04;;;;;;;25.42;11.38;;;;;;;;;;5160525;27;20030;-74
2023/10/05 04:13:50;;;;;;;25.73;12.10;;;;;;;;;;5176451;27;20038;-73
2023/10/05 04:16:35;;;;;;;20.33;11.30;;;;;;;;;;5161814;27;20018;-74
2023/10/05 04:19:21;;;;;;;21.33;10.90;;;;;;;;;;5176696;27;20042;-73
2023/10/05 04:22:06;;;;;;;22.05;11.35;;;;;;;;;;5176599;27;20014;-73
2023/10/05 04:24:52;;;;;;;21.48;10.48;;;;;;;;;;5160894;27;20098;-73
2023/10/05 04:27:38;;;;;;;20.70;9.80;;;;;;;;;;5176677;27;20018;-74
2023/10/05 04:30:24;;;;;;;28.58;11.10;;;;;;;;;;5175669;27;20086;-73
2023/10/05 04:33:14;;;;;;;28.73;9.70;;;;;;;;;;5160940;27;20371;-72
2023/10/05 04:36:02;;;;;;;22.60;10.07;;;;;;;;;;5160929;27;20113;-73
2023/10/05 04:38:50;;;;;;;25.33;9.88;;;;;;;;;;5180287;27;20029;-72
2023/10/05 04:41:38;;;;;;;27.70;10.02;;;;;;;;;;5166391;27;20033;-72
2023/10/05 04:44:24;;;;;;;18.88;9.23;;;;;;;;;;5183336;27;20352;-73
2023/10/05 04:47:09;;;;;;;17.77;8.85;;;;;;;;;;5180052;27;20351;-73
2023/10/05 04:49:58;;;;;;;21.20;9.57;;;;;;;;;;5180992;27;20070;-73
2023/10/05 04:52:50;;;;;;;26.45;9.60;;;;;;;;;;5165286;27;20517;-73
2023/10/05 04:55:43;;;;;;;23.27;9.18;;;;;;;;;;5179413;27;20155;-73
2023/10/05 04:58:43;;;;;;;18.67;9.52;;;;;;;;;;5165234;27;20037;-73
2023/10/05 05:01:29;;;;;;;20.00;8.23;;;;;;;;;;5179614;27;20075;-72
2023/10/05 05:07:33;;;;;;;23.10;9.00;;;;;;;;;;5153014;27;20026;-73
2023/10/05 05:10:20;;;;;;;23.33;9.00;;;;;;;;;;5164133;27;20022;-72
2023/10/05 05:13:06;;;;;;;23.90;8.15;;;;;;;;;;5164833;27;20033;-73
2023/10/05 05:15:52;;;;;;;17.48;7.72;;;;;;;;;;5179301;27;20052;-73
2023/10/05 05:18:37;;;;;;;21.63;7.65;;;;;;;;;;5163623;27;20432;-73
2023/10/05 05:21:23;;;;;;;23.70;8.38;;;;;;;;;;5180060;27;20113;-72
2023/10/05 05:24:10;;;;;;;19.70;8.60;;;;;;;;;;5179484;27;20018;-74
2023/10/05 05:29:58;;;;;;;28.38;9.82;;;;;;;;;;5180288;27;20021;-73
2023/10/05 05:32:44;;;;;;;20.80;8.77;;;;;;;;;;5164678;27;20455;-74
2023/10/05 05:35:29;;;;;;;27.48;10.48;;;;;;;;;;5178910;27;20026;-75
2023/10/05 05:38:18;;;;;;;24.30;10.18;;;;;;;;;;5165623;27;20044;-73
2023/10/05 05:41:09;;;;;;;20.90;9.90;;;;;;;;;;5164234;27;20018;-74
2023/10/05 05:43:59;;;;;;;24.77;10.43;;;;;;;;;;5164103;27;20097;-73
2023/10/05 05:46:45;;;;;;;28.77;9.68;;;;;;;;;;5179543;27;20019;-73
2023/10/05 05:49:31;;;;;;;24.17;8.73;;;;;;;;;;5163613;27;20050;-74
2023/10/05 05:52:17;;;;;;;18.33;8.40;;;;;;;;;;5180119;27;20061;-73
2023/10/05 05:55:10;;;;;;;16.40;7.82;;;;;;;;;;5179079;27;20023;-74
2023/10/05 05:57:56;;;;;;;28.70;8.50;;;;;;;;;;5178677;27;20158;-73
2023/10/05 06:00:41;;;;;;;24.15;8.02;;;;;;;;;;5177612;27;20079;-73
2023/10/05 06:03:27;;;;;;;19.95;8.52;;;;;;;;;;5164401;27;20022;-72
2023/10/05 06:06:13;;;;;;;17.42;7.45;;;;;;;;;;5164039;27;20400;-72
2023/10/05 06:08:58;;;;;;;23.80;8.32;;;;;;;;;;5179022;27;20462;-74
2023/10/05 06:11:44;;;;;;;24.95;7.03;;;;;;;;;;5178277;27;20026;-73
2023/10/05 06:14:34;;;;;;;29.05;7.55;;;;;;;;;;5178443;27;20162;-74
2023/10/05 06:17:20;;;;;;;15.45;7.53;;;;;;;;;;5178433;27;20026;-75
2023/10/05 06:20:14;;;;;;;21.92;8.95;;;;;;;;;;5163973;27;20055;-72
2023/10/05 06:23:00;;;;;;;19.48;7.47;;;;;;;;;;5179256;27;20047;-76
2023/10/05 06:25:48;;;;;;;20.35;7.18;;;;;;;;;;5164177;27;20106;-74
2023/10/05 06:28:33;;;;;;;13.52;7.28;;;;;;;;;;5180577;27;20026;-74
2023/10/05 06:31:19;;;;;;;17.70;7.07;;;;;;;;;;5179286;27;20018;-73
2023/10/05 06:34:09;;;;;;;16.73;7.60;;;;;;;;;;5164999;27;20019;-75
2023/10/05 06:36:55;;;;;;;18.02;7.47;;;;;;;;;;5178010;27;20044;-73
2023/10/05 06:39:40;;;;;;;20.23;7.18;;;;;;;;;;5179039;27;20018;-73
2023/10/05 06:42:26;;;;;;;20.40;7.32;;;;;;;;;;5162280;27;20016;-73
2023/10/05 06:45:13;;;;;;;16.73;7.18;;;;;;;;;;5163381;27;20026;-73
2023/10/05 06:47:59;;;;;;;22.58;7.60;;;;;;;;;;5163515;27;20022;-72
2023/10/05 06:50:44;;;;;;;13.00;5.93;;;;;;;;;;5178260;27;20046;-71
2023/10/05 06:53:30;;;;;;;15.13;6.63;;;;;;;;;;5163009;27;20029;-72
2023/10/05 06:56:16;;;;;;;18.02;6.38;;;;;;;;;;5178537;27;20014;-73
2023/10/05 06:59:04;;;;;;;13.75;6.10;;;;;;;;;;5176991;27;20074;-72
2023/10/05 07:01:51;;;;;;;17.23;6.32;;;;;;;;;;5163835;27;20041;-71
2023/10/05 07:04:37;;;;;;;16.70;6.30;;;;;;;;;;5178126;27;20097;-73
2023/10/05 07:07:23;;;;;;;15.40;5.68;;;;;;;;;;5162622;27;20321;-73
2023/10/05 07:10:09;;;;;;;28.13;6.53;;;;;;;;;;5177434;27;20046;-73
2023/10/05 07:12:55;;;;;;;23.38;6.60;;;;;;;;;;5162549;27;20041;-74
2023/10/05 07:15:41;;;;;;;19.55;5.85;;;;;;;;;;5178766;27;20049;-73
2023/10/05 07:18:27;;;;;;;13.85;6.32;;;;;;;;;;5177462;27;20116;-73
2023/10/05 07:21:12;;;;;;;19.80;6.20;;;;;;;;;;5176152;27;20026;-73
2023/10/05 07:23:59;;;;;;;13.40;5.78;;;;;;;;;;5178966;27;20018;-74
2023/10/05 07:26:45;;;;;;;13.02;6.10;;;;;;;;;;5161736;27;20030;-73
2023/10/05 07:29:30;;;;;;;17.48;5.82;;;;;;;;;;5178191;27;20050;-72
2023/10/05 07:32:16;;;;;;;14.30;6.60;;;;;;;;;;5177103;27;20026;-73
2023/10/05 07:35:02;;;;;;;18.23;6.35;;;;;;;;;;5176608;27;20026;-74
2023/10/05 07:37:48;;;;;;;16.45;6.30;;;;;;;;;;5177778;27;20022;-73
2023/10/05 07:40:35;;;;;;;19.80;7.15;;;;;;;;;;5162305;27;20024;-74
2023/10/05 07:43:21;;;;;;;17.67;6.53;;;;;;;;;;5163286;27;20047;-72
2023/10/05 07:46:07;;;;;;;17.83;6.63;;;;;;;;;;5166229;27;20043;-72
2023/10/05 07:48:52;;;;;;;14.77;6.40;;;;;;;;;;5177299;27;20037;-73
2023/10/05 07:51:38;;;;;;;17.83;6.72;;;;;;;;;;5162681;27;20018;-71
2023/10/05 07:54:24;;;;;;;15.20;5.75;;;;;;;;;;5177978;27;20022;-73
2023/10/05 07:57:10;;;;;;;18.27;5.82;;;;;;;;;;5178399;27;20025;-73
2023/10/05 07:59:55;;;;;;;10.73;5.57;;;;;;;;;;5190734;27;20019;-75
2023/10/05 08:02:41;;;;;;;14.20;6.10;;;;;;;;;;5191318;27;20018;-72
2023/10/05 08:05:27;;;;;;;13.80;5.38;;;;;;;;;;5189776;27;20064;-75
2023/10/05 08:08:14;;;;;;;14.38;5.97;;;;;;;;;;5173189;27;20045;-73
2023/10/05 08:11:00;;;;;;;17.65;6.03;;;;;;;;;;5190871;27;20017;-74
2023/10/05 08:13:46;;;;;;;15.30;5.85;;;;;;;;;;5175382;27;20099;-74
2023/10/05 08:16:31;;;;;;;19.00;6.10;;;;;;;;;;5192053;27;20037;-72
2023/10/05 08:19:19;;;;;;;14.05;5.75;;;;;;;;;;5189215;27;20022;-72
2023/10/05 08:22:04;;;;;;;11.73;6.00;;;;;;;;;;5188180;27;20018;-73
2023/10/05 08:24:52;;;;;;;15.40;6.35;;;;;;;;;;5191988;27;20018;-72
2023/10/05 08:27:38;;;;;;;15.60;6.25;;;;;;;;;;5185613;27;20049;-73
2023/10/05 08:30:33;;;;;;;10.45;4.97;;;;;;;;;;5168205;27;20022;-73
2023/10/05 08:33:19;;;;;;;13.77;6.55;;;;;;;;;;5167110;27;20046;-73
2023/10/05 08:36:11;;;;;;;20.08;5.95;;;;;;;;;;5180161;27;20019;-72
2023/10/05 08:38:57;;;;;;;17.77;5.90;;;;;;;;;;5180599;27;20017;-73
2023/10/05 08:41:42;;;;;;;12.30;7.03;;;;;;;;;;5182469;27;20022;-74
2023/10/05 08:44:30;;;;;;;18.85;6.28;;;;;;;;;;5179745;27;20018;-74
2023/10/05 08:47:16;;;;;;;14.45;6.25;;;;;;;;;;5179318;27;20022;-74
2023/10/05 08:50:05;;;;;;;17.05;6.60;;;;;;;;;;5163835;27;20046;-72
2023/10/05 08:52:51;;;;;;;18.08;6.00;;;;;;;;;;5193150;27;20018;-74
2023/10/05 08:55:43;;;;;;;25.55;7.68;;;;;;;;;;5186542;27;20033;-72
2023/10/05 08:58:28;;;;;;;13.05;5.68;;;;;;;;;;5173891;27;20105;-73
2023/10/05 09:01:24;;;;;;;19.42;6.47;;;;;;;;;;5192982;27;20038;-73
2023/10/05 09:06:58;;;;;;;14.88;5.65;;;;;;;;;;5190987;27;20025;-73
2023/10/05 09:09:54;;;;;;;17.30;6.22;;;;;;;;;;5190643;27;20049;-73
2023/10/05 09:12:42;;;;;;;15.95;6.60;;;;;;;;;;5176677;27;20043;-73
2023/10/05 09:15:29;;;;;;;13.27;6.22;;;;;;;;;;5189608;27;20042;-73
2023/10/05 09:21:03;;;;;;;9.90;5.50;;;;;;;;;;5177518;27;20010;-73
2023/10/05 09:23:49;;;;;;;17.98;5.32;;;;;;;;;;5179831;27;20050;-75
2023/10/05 09:26:38;;;;;;;14.55;5.60;;;;;;;;;;5190831;27;20097;-73
2023/10/05 09:29:28;;;;;;;12.60;5.70;;;;;;;;;;5186427;27;20427;-74
2023/10/05 09:32:25;;;;;;;15.18;5.28;;;;;;;;;;5179895;27;20018;-74
2023/10/05 09:35:23;;;;;;;18.77;9.00;;;;;;;;;;5165458;27;20014;-76
2023/10/05 09:38:11;;;;;;;17.73;6.60;;;;;;;;;;5180508;27;20018;-74
2023/10/05 09:40:59;;;;;;;14.35;6.50;;;;;;;;;;5165165;27;20396;-74
2023/10/05 09:43:50;;;;;;;13.07;5.72;;;;;;;;;;5166452;27;20015;-75
2023/10/05 09:46:37;;;;;;;19.98;6.00;;;;;;;;;;5166875;27;20101;-74
2023/10/05 09:49:23;;;;;;;20.17;6.47;;;;;;;;;;5179239;27;20065;-74
2023/10/05 09:52:09;;;;;;;17.58;5.93;;;;;;;;;;5166108;27;20014;-73
2023/10/05 09:54:55;;;;;;;15.00;6.60;;;;;;;;;;5181513;27;20031;-73
2023/10/05 09:57:41;;;;;;;12.02;5.53;;;;;;;;;;5165254;27;20025;-74
2023/10/05 10:00:29;;;;;;;11.70;5.25;;;;;;;;;;5179341;27;20053;-73
2023/10/05 10:03:17;;;;;;;10.23;5.65;;;;;;;;;;5166611;27;20022;-74
2023/10/05 10:06:09;;;;;;;12.35;5.43;;;;;;;;;;5165663;27;20054;-73
2023/10/05 10:08:57;;;;;;;12.35;5.28;;;;;;;;;;5171033;27;20046;-75
2023/10/05 10:11:44;;;;;;;15.27;5.43;;;;;;;;;;5182995;27;20029;-74
2023/10/05 10:14:30;;;;;;;12.73;5.90;;;;;;;;;;5163385;27;20328;-74
2023/10/05 10:17:24;;;;;;;12.35;5.10;;;;;;;;;;5179732;27;20021;-73
2023/10/05 10:20:57;;;;;;;11.10;5.28;;;;;;;;;;5162901;27;20046;-74
2023/10/05 10:23:27;;;;;;;11.90;5.35;;;;;;;;;;5178360;27;20014;-75
2023/10/05 10:26:20;;;;;;;10.07;5.35;;;;;;;;;;5177913;27;20086;-74
2023/10/05 10:29:11;;;;;;;13.70;5.82;;;;;;;;;;5177898;27;20033;-74
2023/10/05 10:32:22;;;;;;;25.35;5.72;;;;;;;;;;5178801;27;20022;-74
2023/10/05 10:35:26;;;;;;;14.82;5.65;;;;;;;;;;5177120;27;20015;-74
2023/10/05 10:38:17;;;;;;;14.55;5.25;;;;;;;;;;5177441;27;20034;-74
2023/10/05 10:41:20;;;;;;;16.08;5.15;;;;;;;;;;5167927;27;20011;-74
2023/10/05 10:44:21;;;;;;;12.30;5.13;;;;;;;;;;5178140;27;20121;-73
2023/10/05 10:47:09;;;;;;;12.48;5.55;;;;;;;;;;5163504;27;20054;-73
2023/10/05 10:53:25;;;;;;;12.70;5.20;;;;;;;;;;5135692;27;20095;-74
2023/10/05 10:56:21;;;;;;;15.18;5.50;;;;;;;;;;5177961;27;20034;-73
2023/10/05 10:59:26;;;;;;;9.77;5.25;;;;;;;;;;5177040;27;20440;-75
2023/10/05 11:02:19;;;;;;;11.73;5.55;;;;;;;;;;5177656;27;20028;-73
2023/10/05 11:05:05;;;;;;;11.98;5.13;;;;;;;;;;5178072;27;20114;-73
2023/10/05 11:07:57;;;;;;;13.52;4.93;;;;;;;;;;5177738;27;20451;-73
2023/10/05 11:10:43;;;;;;;16.58;5.57;;;;;;;;;;5177817;27;20014;-74
2023/10/05 11:13:30;;;;;;;19.90;5.68;;;;;;;;;;5162331;27;20018;-74
2023/10/05 11:16:16;;;;;;;14.20;5.55;;;;;;;;;;5177426;27;20355;-74
2023/10/05 11:19:04;;;;;;;9.85;4.95;;;;;;;;;;5162374;27;20023;-74
2023/10/05 11:21:50;;;;;;;12.88;4.78;;;;;;;;;;5176570;27;20029;-74
2023/10/05 11:24:56;;;;;;;10.88;5.30;;;;;;;;;;5177888;27;20022;-72
2023/10/05 11:27:49;;;;;;;13.23;5.07;;;;;;;;;;5177176;27;20030;-73
2023/10/05 11:30:41;;;;;;;10.73;4.82;;;;;;;;;;5161865;27;20420;-72
2023/10/05 11:33:33;;;;;;;13.13;5.20;;;;;;;;;;5177116;27;20018;-72
2023/10/05 11:36:33;;;;;;;13.10;4.65;;;;;;;;;;5176526;27;20022;-73
2023/10/05 11:39:22;;;;;;;15.40;5.25;;;;;;;;;;5176180;27;20443;-73
2023/10/05 11:42:10;;;;;;;9.80;4.88;;;;;;;;;;5163012;27;20105;-73
2023/10/05 11:44:59;;;;;;;15.35;5.25;;;;;;;;;;5176921;27;20014;-72
2023/10/05 11:47:52;;;;;;;7.75;4.57;;;;;;;;;;5161896;27;20045;-72
2023/10/05 11:50:51;;;;;;;11.02;5.07;;;;;;;;;;5176241;27;20459;-72
2023/10/05 11:53:37;;;;;;;10.68;5.00;;;;;;;;;;5161288;27;20118;-72
2023/10/05 11:56:30;;;;;;;9.80;4.90;;;;;;;;;;5162326;27;20026;-72
2023/10/05 11:59:29;;;;;;;13.05;5.38;;;;;;;;;;5161142;27;20025;-74
2023/10/05 12:02:17;;;;;;;11.02;5.13;;;;;;;;;;5162280;27;20431;-73
2023/10/05 12:05:03;;;;;;;15.95;5.40;;;;;;;;;;5175862;27;20026;-71
2023/10/05 12:07:51;;;;;;;12.45;5.20;;;;;;;;;;5176901;27;20037;-73
2023/10/05 12:10:36;;;;;;;16.58;4.80;;;;;;;;;;5163015;27;20114;-73
2023/10/05 12:13:22;;;;;;;15.23;5.15;;;;;;;;;;5177248;27;20057;-73
2023/10/05 12:16:11;;;;;;;12.38;5.53;;;;;;;;;;5177652;27;20033;-73
2023/10/05 12:18:58;;;;;;;11.20;5.22;;;;;;;;;;5164660;27;20019;-72
2023/10/05 12:21:44;;;;;;;12.68;4.68;;;;;;;;;;5164410;27;20397;-73
2023/10/05 12:24:30;;;;;;;15.55;5.47;;;;;;;;;;5163287;27;20034;-74
2023/10/05 12:27:20;;;;;;;11.88;5.68;;;;;;;;;;5176992;27;20105;-72
2023/10/05 12:30:16;;;;;;;14.13;5.78;;;;;;;;;;5176209;27;20516;-73
2023/10/05 12:33:03;;;;;;;13.32;6.18;;;;;;;;;;5161529;27;20026;-73
2023/10/05 12:35:52;;;;;;;12.57;5.20;;;;;;;;;;5175676;27;20022;-72
2023/10/05 12:38:39;;;;;;;12.70;5.80;;;;;;;;;;5175485;27;20051;-72
2023/10/05 12:41:36;;;;;;;13.50;5.07;;;;;;;;;;5176136;27;20475;-73
2023/10/05 12:44:27;;;;;;;11.52;5.18;;;;;;;;;;5175482;27;20026;-72
2023/10/05 12:47:13;;;;;;;8.65;4.68;;;;;;;;;;5175550;27;20025;-72
2023/10/05 12:49:58;;;;;;;16.95;5.40;;;;;;;;;;5174565;27;20585;-73
2023/10/05 12:52:44;;;;;;;13.25;5.05;;;;;;;;;;5161270;27;20037;-73
2023/10/05 12:55:30;;;;;;;13.10;4.70;;;;;;;;;;5176794;27;20015;-73
2023/10/05 12:58:15;;;;;;;12.50;5.50;;;;;;;;;;5176951;27;20030;-73
2023/10/05 13:01:07;;;;;;;17.02;5.63;;;;;;;;;;5179716;27;20026;-73
2023/10/05 13:03:53;;;;;;;13.02;5.43;;;;;;;;;;5165926;27;20030;-73
2023/10/05 13:06:39;;;;;;;14.18;8.48;;;;;;;;;;5164374;27;20018;-73
2023/10/05 13:09:25;;;;;;;14.18;5.53;;;;;;;;;;5179163;27;20467;-73
2023/10/05 13:12:12;;;;;;;14.13;4.90;;;;;;;;;;5180286;27;20072;-74
2023/10/05 13:14:59;;;;;;;19.42;5.43;;;;;;;;;;5166735;27;20105;-74
2023/10/05 13:17:46;;;;;;;10.60;5.68;;;;;;;;;;5190296;27;20105;-73
2023/10/05 13:20:33;;;;;;;9.48;5.32;;;;;;;;;;5165331;27;20018;-74
2023/10/05 13:23:19;;;;;;;11.23;6.72;;;;;;;;;;5184378;27;20015;-73
2023/10/05 13:26:07;;;;;;;10.65;5.05;;;;;;;;;;5181072;27;20023;-73
2023/10/05 13:28:53;;;;;;;9.80;5.45;;;;;;;;;;5179933;27;20026;-74
2023/10/05 13:31:39;;;;;;;19.95;6.40;;;;;;;;;;5180272;27;20447;-73
2023/10/05 13:34:27;;;;;;;18.20;6.03;;;;;;;;;;5180906;27;20404;-74
2023/10/05 13:37:13;;;;;;;13.07;5.75;;;;;;;;;;5180996;27;20359;-74
2023/10/05 13:40:03;;;;;;;14.27;5.70;;;;;;;;;;5180896;27;20014;-74
2023/10/05 13:42:52;;;;;;;15.82;6.25;;;;;;;;;;5181152;27;20087;-73
2023/10/05 13:45:44;;;;;;;16.45;5.38;;;;;;;;;;5167380;27;20014;-73
2023/10/05 13:48:30;;;;;;;10.27;5.28;;;;;;;;;;5181646;27;20022;-74
2023/10/05 13:51:16;;;;;;;22.25;6.60;;;;;;;;;;5180057;27;20030;-74
2023/10/05 13:54:06;;;;;;;18.85;5.65;;;;;;;;;;5178381;27;20030;-74
2023/10/05 13:56:52;;;;;;;12.95;5.03;;;;;;;;;;5178918;27;20018;-73
2023/10/05 13:59:38;;;;;;;11.55;5.53;;;;;;;;;;5178789;27;20037;-73
2023/10/05 14:02:24;;;;;;;10.55;5.22;;;;;;;;;;5163389;27;20015;-73
2023/10/05 14:05:09;;;;;;;14.38;5.22;;;;;;;;;;5162811;27;20079;-73
2023/10/05 14:07:58;;;;;;;12.43;5.78;;;;;;;;;;5179008;27;20034;-74
2023/10/05 14:10:44;;;;;;;10.15;4.80;;;;;;;;;;5177472;27;20026;-73
2023/10/05 14:13:29;;;;;;;11.38;5.35;;;;;;;;;;5181843;27;20018;-73
2023/10/05 14:16:15;;;;;;;15.80;5.82;;;;;;;;;;5185398;27;20113;-73
2023/10/05 14:19:01;;;;;;;13.40;5.43;;;;;;;;;;5162620;27;20037;-73
2023/10/05 14:21:47;;;;;;;19.17;6.63;;;;;;;;;;5178087;27;20105;-73
2023/10/05 14:24:34;;;;;;;10.60;5.97;;;;;;;;;;5167473;27;20018;-73
2023/10/05 14:27:21;;;;;;;15.43;6.20;;;;;;;;;;5164560;27;20018;-73
2023/10/05 14:30:07;;;;;;;12.80;5.55;;;;;;;;;;5171471;27;20041;-72
2023/10/05 14:32:52;;;;;;;12.02;5.15;;;;;;;;;;5166115;27;20022;-73
2023/10/05 14:35:38;;;;;;;14.75;4.90;;;;;;;;;;5181880;27;20018;-73
2023/10/05 14:38:25;;;;;;;16.58;5.63;;;;;;;;;;5178756;27;20151;-73
2023/10/05 14:41:14;;;;;;;11.45;6.22;;;;;;;;;;5178396;27;20117;-73
2023/10/05 14:44:04;;;;;;;20.35;6.05;;;;;;;;;;5179213;27;20086;-74
2023/10/05 14:46:50;;;;;;;13.55;6.45;;;;;;;;;;5164104;27;20018;-74
2023/10/05 14:49:35;;;;;;;12.23;5.15;;;;;;;;;;5162995;27;20095;-74
2023/10/05 14:52:21;;;;;;;17.42;6.28;;;;;;;;;;5178133;27;20015;-73
2023/10/05 14:55:08;;;;;;;12.00;5.57;;;;;;;;;;5177873;27;20018;-73
2023/10/05 14:57:55;;;;;;;10.52;5.43;;;;;;;;;;5189872;27;20046;-73
2023/10/05 15:00:40;;;;;;;11.57;5.68;;;;;;;;;;5169778;27;20032;-73
2023/10/05 15:03:26;;;;;;;11.98;5.50;;;;;;;;;;5177400;27;20343;-72
2023/10/05 15:06:13;;;;;;;11.63;5.95;;;;;;;;;;5177236;27;20034;-73
2023/10/05 15:08:59;;;;;;;13.23;5.95;;;;;;;;;;5177905;27;20030;-73
2023/10/05 15:11:45;;;;;;;13.82;5.82;;;;;;;;;;5180264;27;20355;-73
2023/10/05 15:14:32;;;;;;;11.95;5.57;;;;;;;;;;5177934;27;20312;-73
2023/10/05 15:17:18;;;;;;;12.07;5.35;;;;;;;;;;5162618;27;20018;-74
2023/10/05 15:20:10;;;;;;;10.65;5.38;;;;;;;;;;5176028;27;20022;-73
2023/10/05 15:22:56;;;;;;;13.25;5.85;;;;;;;;;;5173937;27;20071;-73
2023/10/05 15:25:42;;;;;;;14.15;5.57;;;;;;;;;;5181494;27;20031;-73
2023/10/05 15:28:27;;;;;;;11.20;5.72;;;;;;;;;;5161719;27;20022;-74
2023/10/05 15:31:13;;;;;;;15.23;5.97;;;;;;;;;;5177008;27;20093;-74
2023/10/05 15:34:03;;;;;;;14.55;5.53;;;;;;;;;;5176600;27;20019;-74
2023/10/05 15:36:54;;;;;;;11.90;5.45;;;;;;;;;;5176547;27;20097;-73
2023/10/05 15:39:40;;;;;;;13.40;5.90;;;;;;;;;;5164988;27;20038;-74
2023/10/05 15:42:27;;;;;;;14.00;5.68;;;;;;;;;;5176072;27;20030;-74
2023/10/05 15:45:16;;;;;;;17.38;6.40;;;;;;;;;;5161869;27;20022;-72
2023/10/05 15:48:09;;;;;;;11.70;5.93;;;;;;;;;;5162372;27;20068;-73
2023/10/05 15:50:55;;;;;;;14.63;6.60;;;;;;;;;;5160024;27;20052;-73
2023/10/05 15:53:51;;;;;;;20.52;6.03;;;;;;;;;;5175825;27;20022;-75
2023/10/05 15:56:37;;;;;;;19.58;5.97;;;;;;;;;;5176872;27;20377;-73
2023/10/05 15:59:23;;;;;;;12.95;6.47;;;;;;;;;;5176866;27;20403;-74
2023/10/05 16:02:09;;;;;;;13.95;5.95;;;;;;;;;;5162066;27;20037;-74
2023/10/05 16:04:54;;;;;;;16.73;6.43;;;;;;;;;;5176396;27;20029;-74
2023/10/05 16:07:41;;;;;;;17.73;6.70;;;;;;;;;;5175809;27;20056;-74
2023/10/05 16:10:28;;;;;;;15.27;6.97;;;;;;;;;;5160418;27;20105;-74
2023/10/05 16:13:15;;;;;;;16.08;7.15;;;;;;;;;;5161225;27;20089;-73
2023/10/05 16:16:02;;;;;;;18.80;7.05;;;;;;;;;;5175052;27;20544;-73
2023/10/05 16:18:48;;;;;;;15.55;7.60;;;;;;;;;;5176634;27;20026;-75
2023/10/05 16:21:34;;;;;;;22.23;8.00;;;;;;;;;;5175750;27;20022;-73
2023/10/05 16:24:20;;;;;;;18.63;7.75;;;;;;;;;;5176264;27;20082;-73
2023/10/05 16:27:06;;;;;;;20.17;7.38;;;;;;;;;;5176367;27;20101;-72
2023/10/05 16:29:52;;;;;;;22.75;7.93;;;;;;;;;;5175907;27;20109;-73
2023/10/05 16:32:38;;;;;;;18.88;7.13;;;;;;;;;;5175713;27;20058;-74
2023/10/05 16:35:24;;;;;;;23.15;7.10;;;;;;;;;;5161628;27;20037;-74
2023/10/05 16:38:09;;;;;;;27.40;8.60;;;;;;;;;;5162089;27;20015;-74
2023/10/05 16:40:56;;;;;;;19.60;7.70;;;;;;;;;;5160125;27;20022;-73
2023/10/05 16:43:42;;;;;;;14.35;7.10;;;;;;;;;;5160566;27;20090;-74
2023/10/05 16:46:27;;;;;;;18.38;6.95;;;;;;;;;;5175081;27;20440;-75
2023/10/05 16:49:15;;;;;;;28.92;9.30;;;;;;;;;;5175944;27;20050;-72
2023/10/05 16:52:00;;;;;;;49.08;10.13;;;;;;;;;;5186885;27;20027;-73
2023/10/05 16:54:47;;;;;;;25.83;9.07;;;;;;;;;;5161788;27;20033;-73
2023/10/05 16:57:33;;;;;;;29.00;7.85;;;;;;;;;;5180789;27;20416;-71